Arbutus, Maryland
Current Conditions -  °F | °C
As of 8:54 AM on Monday 26 Jan 2015 (Local Time) from KBWI Reporting Station
Light Snow Light Snow  
Wind Chill: -6°   Ceiling: 800
Heat Index: -1°   Visibility: 1mi
Dew Point: -2°   Wind: 13mph
Humidity: 92%   Direction: 70°ENE
Pressure: 29.82"   Gusts: NA
Location:  39.2187°N, 76.722°W
Report Text: KBWI 261354Z 07011KT 1SM R10/P6000FT -SN BR OVC008 M01/M02 A2982 RMK AO2 SLP098 P0001 T10061017
Loading
Personal Weather Stations






























Interactive Weather Map New forecast layout! Learn more

10-Day Weather Forecast

Advertisements
Track Severe Weather on mobile